sensor_id;sensor_type;location;lat;lon;timestamp;P1;durP1;ratioP1;P2;durP2;ratioP2
48891;SDS011;50130;52.150;5.236;2023-02-28T00:01:10;5.7;;;3.6;;
48891;SDS011;50130;52.150;5.236;2023-02-28T00:02:47;7.2;;;3.7;;
48891;SDS011;50130;52.150;5.236;2023-02-28T00:06:00;7.5;;;3.7;;
48891;SDS011;50130;52.150;5.236;2023-02-28T00:07:37;5.6;;;3.7;;
48891;SDS011;50130;52.150;5.236;2023-02-28T00:09:14;7.9;;;3.7;;
48891;SDS011;50130;52.150;5.236;2023-02-28T00:10:50;6.4;;;3.8;;
48891;SDS011;50130;52.150;5.236;2023-02-28T00:14:02;6.7;;;3.3;;
48891;SDS011;50130;52.150;5.236;2023-02-28T00:15:38;7.5;;;3.9;;
48891;SDS011;50130;52.150;5.236;2023-02-28T00:17:15;8.0;;;4.1;;
48891;SDS011;50130;52.150;5.236;2023-02-28T00:20:27;6.7;;;4.0;;
48891;SDS011;50130;52.150;5.236;2023-02-28T00:22:03;9.31;;;4.0;;
48891;SDS011;50130;52.150;5.236;2023-02-28T00:23:39;7.8;;;3.9;;
48891;SDS011;50130;52.150;5.236;2023-02-28T00:26:55;8.81;;;4.0;;
48891;SDS011;50130;52.150;5.236;2023-02-28T00:30:09;8.0;;;4.3;;
48891;SDS011;50130;52.150;5.236;2023-02-28T00:31:51;8.0;;;4.3;;
48891;SDS011;50130;52.150;5.236;2023-02-28T00:35:05;7.1;;;4.1;;
48891;SDS011;50130;52.150;5.236;2023-02-28T00:36:42;7.4;;;4.1;;
48891;SDS011;50130;52.150;5.236;2023-02-28T00:38:18;6.3;;;4.1;;
48891;SDS011;50130;52.150;5.236;2023-02-28T00:41:32;8.6;;;4.41;;
48891;SDS011;50130;52.150;5.236;2023-02-28T00:43:08;7.5;;;4.1;;
48891;SDS011;50130;52.150;5.236;2023-02-28T00:44:44;7.6;;;4.1;;
48891;SDS011;50130;52.150;5.236;2023-02-28T00:46:20;6.8;;;4.2;;
48891;SDS011;50130;52.150;5.236;2023-02-28T00:49:33;6.7;;;3.9;;
48891;SDS011;50130;52.150;5.236;2023-02-28T00:51:09;8.31;;;4.1;;
48891;SDS011;50130;52.150;5.236;2023-02-28T00:52:45;7.4;;;4.2;;
48891;SDS011;50130;52.150;5.236;2023-02-28T00:55:59;7.2;;;4.1;;
48891;SDS011;50130;52.150;5.236;2023-02-28T00:57:35;7.1;;;3.8;;
48891;SDS011;50130;52.150;5.236;2023-02-28T00:59:11;7.3;;;4.1;;
48891;SDS011;50130;52.150;5.236;2023-02-28T01:02:26;10.6;;;4.8;;
48891;SDS011;50130;52.150;5.236;2023-02-28T01:04:02;6.8;;;3.9;;
48891;SDS011;50130;52.150;5.236;2023-02-28T01:05:38;7.0;;;4.2;;
48891;SDS011;50130;52.150;5.236;2023-02-28T01:08:50;8.31;;;4.3;;
48891;SDS011;50130;52.150;5.236;2023-02-28T01:10:27;7.5;;;3.9;;
48891;SDS011;50130;52.150;5.236;2023-02-28T01:12:04;8.1;;;4.1;;
48891;SDS011;50130;52.150;5.236;2023-02-28T01:13:40;8.2;;;4.61;;
48891;SDS011;50130;52.150;5.236;2023-02-28T01:16:53;8.31;;;3.9;;
48891;SDS011;50130;52.150;5.236;2023-02-28T01:18:29;8.0;;;4.1;;
48891;SDS011;50130;52.150;5.236;2023-02-28T01:20:06;5.7;;;3.7;;
48891;SDS011;50130;52.150;5.236;2023-02-28T01:23:18;7.9;;;4.7;;
48891;SDS011;50130;52.150;5.236;2023-02-28T01:24:55;6.1;;;4.0;;
48891;SDS011;50130;52.150;5.236;2023-02-28T01:26:32;7.4;;;4.2;;
48891;SDS011;50130;52.150;5.236;2023-02-28T01:29:44;7.2;;;4.41;;
48891;SDS011;50130;52.150;5.236;2023-02-28T01:31:21;6.3;;;4.5;;
48891;SDS011;50130;52.150;5.236;2023-02-28T01:32:58;6.3;;;4.5;;
48891;SDS011;50130;52.150;5.236;2023-02-28T01:34:35;11.2;;;5.0;;
48891;SDS011;50130;52.150;5.236;2023-02-28T01:37:51;7.9;;;4.41;;
48891;SDS011;50130;52.150;5.236;2023-02-28T01:39:27;6.3;;;3.8;;
48891;SDS011;50130;52.150;5.236;2023-02-28T01:41:03;7.0;;;4.3;;
48891;SDS011;50130;52.150;5.236;2023-02-28T01:45:22;9.1;;;4.3;;
48891;SDS011;50130;52.150;5.236;2023-02-28T01:47:01;7.2;;;4.1;;
48891;SDS011;50130;52.150;5.236;2023-02-28T01:50:19;6.8;;;4.1;;
48891;SDS011;50130;52.150;5.236;2023-02-28T01:51:58;7.5;;;4.3;;
48891;SDS011;50130;52.150;5.236;2023-02-28T01:53:34;6.8;;;4.3;;
48891;SDS011;50130;52.150;5.236;2023-02-28T01:56:58;6.6;;;4.3;;
48891;SDS011;50130;52.150;5.236;2023-02-28T01:58:40;6.6;;;4.61;;
48891;SDS011;50130;52.150;5.236;2023-02-28T02:00:17;8.0;;;4.3;;
48891;SDS011;50130;52.150;5.236;2023-02-28T02:01:59;7.2;;;4.5;;
48891;SDS011;50130;52.150;5.236;2023-02-28T02:05:14;7.2;;;4.2;;
48891;SDS011;50130;52.150;5.236;2023-02-28T02:06:53;6.8;;;4.1;;
48891;SDS011;50130;52.150;5.236;2023-02-28T02:08:30;7.3;;;3.9;;
48891;SDS011;50130;52.150;5.236;2023-02-28T02:10:10;8.31;;;4.0;;
48891;SDS011;50130;52.150;5.236;2023-02-28T02:13:34;6.7;;;3.9;;
48891;SDS011;50130;52.150;5.236;2023-02-28T02:15:29;7.7;;;3.7;;
48891;SDS011;50130;52.150;5.236;2023-02-28T02:17:14;6.7;;;4.41;;
48891;SDS011;50130;52.150;5.236;2023-02-28T02:19:02;6.9;;;3.9;;
48891;SDS011;50130;52.150;5.236;2023-02-28T02:27:14;9.5;;;3.9;;
48891;SDS011;50130;52.150;5.236;2023-02-28T02:29:49;7.3;;;4.2;;
48891;SDS011;50130;52.150;5.236;2023-02-28T02:33:09;7.1;;;4.61;;
48891;SDS011;50130;52.150;5.236;2023-02-28T02:35:27;7.1;;;4.1;;
48891;SDS011;50130;52.150;5.236;2023-02-28T02:38:56;6.6;;;4.2;;
48891;SDS011;50130;52.150;5.236;2023-02-28T02:40:43;8.71;;;4.3;;
48891;SDS011;50130;52.150;5.236;2023-02-28T02:42:31;8.9;;;4.41;;
48891;SDS011;50130;52.150;5.236;2023-02-28T02:44:16;7.5;;;4.7;;
48891;SDS011;50130;52.150;5.236;2023-02-28T02:45:58;6.0;;;4.1;;
48891;SDS011;50130;52.150;5.236;2023-02-28T02:47:40;6.1;;;4.0;;
48891;SDS011;50130;52.150;5.236;2023-02-28T02:51:00;6.8;;;4.2;;
48891;SDS011;50130;52.150;5.236;2023-02-28T02:52:42;7.1;;;4.1;;
48891;SDS011;50130;52.150;5.236;2023-02-28T02:54:32;7.9;;;4.7;;
48891;SDS011;50130;52.150;5.236;2023-02-28T02:56:12;8.4;;;4.91;;
48891;SDS011;50130;52.150;5.236;2023-02-28T02:59:33;8.2;;;5.0;;
48891;SDS011;50130;52.150;5.236;2023-02-28T03:01:14;8.1;;;5.0;;
48891;SDS011;50130;52.150;5.236;2023-02-28T03:02:54;9.31;;;4.7;;
48891;SDS011;50130;52.150;5.236;2023-02-28T03:04:33;7.6;;;4.7;;
48891;SDS011;50130;52.150;5.236;2023-02-28T03:07:54;7.3;;;4.2;;
48891;SDS011;50130;52.150;5.236;2023-02-28T03:09:32;6.3;;;4.2;;
48891;SDS011;50130;52.150;5.236;2023-02-28T03:11:11;7.2;;;4.5;;
48891;SDS011;50130;52.150;5.236;2023-02-28T03:16:33;7.5;;;4.5;;
48891;SDS011;50130;52.150;5.236;2023-02-28T03:18:17;7.6;;;4.41;;
48891;SDS011;50130;52.150;5.236;2023-02-28T03:20:04;6.0;;;4.1;;
48891;SDS011;50130;52.150;5.236;2023-02-28T03:21:54;7.4;;;4.3;;
48891;SDS011;50130;52.150;5.236;2023-02-28T03:23:42;6.9;;;4.91;;
48891;SDS011;50130;52.150;5.236;2023-02-28T03:25:28;8.1;;;4.61;;
48891;SDS011;50130;52.150;5.236;2023-02-28T03:28:58;7.2;;;4.41;;
48891;SDS011;50130;52.150;5.236;2023-02-28T03:30:42;6.9;;;4.41;;
48891;SDS011;50130;52.150;5.236;2023-02-28T03:32:25;6.9;;;4.1;;
48891;SDS011;50130;52.150;5.236;2023-02-28T03:34:10;7.1;;;4.2;;
48891;SDS011;50130;52.150;5.236;2023-02-28T03:35:54;6.1;;;4.41;;
48891;SDS011;50130;52.150;5.236;2023-02-28T03:39:17;10.0;;;4.41;;
48891;SDS011;50130;52.150;5.236;2023-02-28T03:40:58;6.7;;;4.61;;
48891;SDS011;50130;52.150;5.236;2023-02-28T03:42:41;6.9;;;3.8;;
48891;SDS011;50130;52.150;5.236;2023-02-28T03:44:22;7.4;;;3.9;;
48891;SDS011;50130;52.150;5.236;2023-02-28T03:47:47;7.2;;;4.1;;
48891;SDS011;50130;52.150;5.236;2023-02-28T03:49:30;6.0;;;3.9;;
48891;SDS011;50130;52.150;5.236;2023-02-28T03:51:10;7.0;;;4.3;;
48891;SDS011;50130;52.150;5.236;2023-02-28T03:52:53;6.7;;;4.2;;
48891;SDS011;50130;52.150;5.236;2023-02-28T03:54:38;7.3;;;4.2;;
48891;SDS011;50130;52.150;5.236;2023-02-28T03:58:05;7.0;;;4.3;;
48891;SDS011;50130;52.150;5.236;2023-02-28T03:59:52;7.5;;;4.5;;
48891;SDS011;50130;52.150;5.236;2023-02-28T04:01:35;9.31;;;4.5;;
48891;SDS011;50130;52.150;5.236;2023-02-28T04:03:16;8.81;;;4.7;;
48891;SDS011;50130;52.150;5.236;2023-02-28T04:06:30;8.2;;;4.61;;
48891;SDS011;50130;52.150;5.236;2023-02-28T04:08:07;6.7;;;4.2;;
48891;SDS011;50130;52.150;5.236;2023-02-28T04:09:44;7.6;;;4.7;;
48891;SDS011;50130;52.150;5.236;2023-02-28T04:13:02;7.9;;;4.7;;
48891;SDS011;50130;52.150;5.236;2023-02-28T04:14:38;8.1;;;4.7;;
48891;SDS011;50130;52.150;5.236;2023-02-28T04:16:14;8.0;;;4.5;;
48891;SDS011;50130;52.150;5.236;2023-02-28T04:17:51;7.4;;;4.8;;
48891;SDS011;50130;52.150;5.236;2023-02-28T04:21:04;8.1;;;4.41;;
48891;SDS011;50130;52.150;5.236;2023-02-28T04:22:41;7.1;;;4.7;;
48891;SDS011;50130;52.150;5.236;2023-02-28T04:24:18;7.5;;;4.61;;
48891;SDS011;50130;52.150;5.236;2023-02-28T04:27:32;7.8;;;5.0;;
48891;SDS011;50130;52.150;5.236;2023-02-28T04:29:10;8.31;;;5.0;;
48891;SDS011;50130;52.150;5.236;2023-02-28T04:30:53;8.4;;;5.11;;
48891;SDS011;50130;52.150;5.236;2023-02-28T04:32:31;9.81;;;5.3;;
48891;SDS011;50130;52.150;5.236;2023-02-28T04:35:43;9.6;;;5.8;;
48891;SDS011;50130;52.150;5.236;2023-02-28T04:37:19;11.7;;;5.8;;
48891;SDS011;50130;52.150;5.236;2023-02-28T04:38:55;8.5;;;5.9;;
48891;SDS011;50130;52.150;5.236;2023-02-28T04:42:09;7.2;;;4.91;;
48891;SDS011;50130;52.150;5.236;2023-02-28T04:43:46;8.71;;;5.6;;
48891;SDS011;50130;52.150;5.236;2023-02-28T04:45:22;9.5;;;5.2;;
48891;SDS011;50130;52.150;5.236;2023-02-28T04:46:58;7.9;;;5.0;;
48891;SDS011;50130;52.150;5.236;2023-02-28T04:50:13;9.0;;;5.11;;
48891;SDS011;50130;52.150;5.236;2023-02-28T04:51:49;9.1;;;5.7;;
48891;SDS011;50130;52.150;5.236;2023-02-28T04:53:26;10.9;;;6.6;;
48891;SDS011;50130;52.150;5.236;2023-02-28T04:56:41;12.7;;;6.6;;
48891;SDS011;50130;52.150;5.236;2023-02-28T04:58:18;10.6;;;6.5;;
48891;SDS011;50130;52.150;5.236;2023-02-28T04:59:54;12.2;;;7.4;;
48891;SDS011;50130;52.150;5.236;2023-02-28T05:03:08;10.4;;;6.5;;
48891;SDS011;50130;52.150;5.236;2023-02-28T05:04:44;11.2;;;6.4;;
48891;SDS011;50130;52.150;5.236;2023-02-28T05:06:21;8.9;;;5.2;;
48891;SDS011;50130;52.150;5.236;2023-02-28T05:07:59;8.0;;;5.3;;
48891;SDS011;50130;52.150;5.236;2023-02-28T05:11:14;8.81;;;4.8;;
48891;SDS011;50130;52.150;5.236;2023-02-28T05:12:52;8.0;;;4.91;;
48891;SDS011;50130;52.150;5.236;2023-02-28T05:14:28;6.8;;;4.8;;
48891;SDS011;50130;52.150;5.236;2023-02-28T05:17:42;6.4;;;5.0;;
48891;SDS011;50130;52.150;5.236;2023-02-28T05:19:19;8.2;;;4.8;;
48891;SDS011;50130;52.150;5.236;2023-02-28T05:20:55;8.71;;;4.5;;
48891;SDS011;50130;52.150;5.236;2023-02-28T05:22:31;8.0;;;4.61;;
48891;SDS011;50130;52.150;5.236;2023-02-28T05:25:47;6.6;;;4.3;;
48891;SDS011;50130;52.150;5.236;2023-02-28T05:27:23;7.6;;;4.3;;
48891;SDS011;50130;52.150;5.236;2023-02-28T05:30:36;5.8;;;4.0;;
48891;SDS011;50130;52.150;5.236;2023-02-28T05:32:12;7.0;;;4.0;;
48891;SDS011;50130;52.150;5.236;2023-02-28T05:33:49;7.9;;;4.41;;
48891;SDS011;50130;52.150;5.236;2023-02-28T05:35:26;7.1;;;4.0;;
48891;SDS011;50130;52.150;5.236;2023-02-28T05:38:38;7.1;;;4.1;;
48891;SDS011;50130;52.150;5.236;2023-02-28T05:40:15;8.2;;;4.1;;
48891;SDS011;50130;52.150;5.236;2023-02-28T05:41:52;7.3;;;4.1;;
48891;SDS011;50130;52.150;5.236;2023-02-28T05:43:28;6.4;;;4.1;;
48891;SDS011;50130;52.150;5.236;2023-02-28T05:46:41;5.3;;;3.4;;
48891;SDS011;50130;52.150;5.236;2023-02-28T05:48:17;7.4;;;4.0;;
48891;SDS011;50130;52.150;5.236;2023-02-28T05:49:53;8.0;;;3.7;;
48891;SDS011;50130;52.150;5.236;2023-02-28T05:53:06;6.1;;;4.1;;
48891;SDS011;50130;52.150;5.236;2023-02-28T05:54:42;6.4;;;4.41;;
48891;SDS011;50130;52.150;5.236;2023-02-28T05:56:18;9.4;;;4.91;;
48891;SDS011;50130;52.150;5.236;2023-02-28T05:59:30;9.81;;;4.8;;
48891;SDS011;50130;52.150;5.236;2023-02-28T06:01:30;5.5;;;4.3;;
48891;SDS011;50130;52.150;5.236;2023-02-28T06:03:08;6.8;;;4.41;;
48891;SDS011;50130;52.150;5.236;2023-02-28T06:04:45;5.8;;;4.1;;
48891;SDS011;50130;52.150;5.236;2023-02-28T06:07:58;7.6;;;4.8;;
48891;SDS011;50130;52.150;5.236;2023-02-28T06:09:34;9.81;;;5.2;;
48891;SDS011;50130;52.150;5.236;2023-02-28T06:11:11;8.5;;;5.9;;
48891;SDS011;50130;52.150;5.236;2023-02-28T06:12:48;10.21;;;5.6;;
48891;SDS011;50130;52.150;5.236;2023-02-28T06:16:01;6.7;;;5.11;;
48891;SDS011;50130;52.150;5.236;2023-02-28T06:17:37;8.2;;;6.2;;
48891;SDS011;50130;52.150;5.236;2023-02-28T06:19:13;8.6;;;6.3;;
48891;SDS011;50130;52.150;5.236;2023-02-28T06:22:28;7.5;;;6.6;;
48891;SDS011;50130;52.150;5.236;2023-02-28T06:24:04;8.2;;;6.5;;
48891;SDS011;50130;52.150;5.236;2023-02-28T06:25:44;8.9;;;6.9;;
48891;SDS011;50130;52.150;5.236;2023-02-28T06:27:20;9.9;;;7.5;;
48891;SDS011;50130;52.150;5.236;2023-02-28T06:30:33;9.1;;;8.1;;
48891;SDS011;50130;52.150;5.236;2023-02-28T06:32:09;11.7;;;7.5;;
48891;SDS011;50130;52.150;5.236;2023-02-28T06:33:45;11.4;;;8.2;;
48891;SDS011;50130;52.150;5.236;2023-02-28T06:36:58;10.1;;;7.6;;
48891;SDS011;50130;52.150;5.236;2023-02-28T06:38:36;11.9;;;8.71;;
48891;SDS011;50130;52.150;5.236;2023-02-28T06:40:14;10.6;;;8.9;;
48891;SDS011;50130;52.150;5.236;2023-02-28T06:43:27;11.9;;;8.31;;
48891;SDS011;50130;52.150;5.236;2023-02-28T06:45:05;12.5;;;9.0;;
48891;SDS011;50130;52.150;5.236;2023-02-28T06:46:43;10.5;;;8.6;;
48891;SDS011;50130;52.150;5.236;2023-02-28T06:48:20;12.5;;;9.0;;
48891;SDS011;50130;52.150;5.236;2023-02-28T06:51:33;13.8;;;11.5;;
48891;SDS011;50130;52.150;5.236;2023-02-28T06:53:09;12.6;;;9.9;;
48891;SDS011;50130;52.150;5.236;2023-02-28T06:54:45;14.0;;;10.21;;
48891;SDS011;50130;52.150;5.236;2023-02-28T06:57:58;13.5;;;10.8;;
48891;SDS011;50130;52.150;5.236;2023-02-28T06:59:34;14.1;;;10.3;;
48891;SDS011;50130;52.150;5.236;2023-02-28T07:01:10;13.6;;;9.31;;
48891;SDS011;50130;52.150;5.236;2023-02-28T07:04:25;12.2;;;10.8;;
48891;SDS011;50130;52.150;5.236;2023-02-28T07:06:01;11.2;;;9.81;;
48891;SDS011;50130;52.150;5.236;2023-02-28T07:07:38;13.1;;;10.6;;
48891;SDS011;50130;52.150;5.236;2023-02-28T07:09:15;13.9;;;11.6;;
48891;SDS011;50130;52.150;5.236;2023-02-28T07:12:28;15.0;;;11.2;;
48891;SDS011;50130;52.150;5.236;2023-02-28T07:14:05;16.7;;;14.9;;
48891;SDS011;50130;52.150;5.236;2023-02-28T07:15:41;16.61;;;14.4;;
48891;SDS011;50130;52.150;5.236;2023-02-28T07:18:53;43.6;;;32.4;;
48891;SDS011;50130;52.150;5.236;2023-02-28T07:20:29;43.3;;;33.71;;
48891;SDS011;50130;52.150;5.236;2023-02-28T07:22:07;34.5;;;30.1;;
48891;SDS011;50130;52.150;5.236;2023-02-28T07:25:20;31.5;;;25.5;;
48891;SDS011;50130;52.150;5.236;2023-02-28T07:26:56;18.61;;;16.4;;
48891;SDS011;50130;52.150;5.236;2023-02-28T07:28:33;15.1;;;13.2;;
48891;SDS011;50130;52.150;5.236;2023-02-28T07:30:09;15.4;;;12.8;;
48891;SDS011;50130;52.150;5.236;2023-02-28T07:33:22;13.5;;;11.8;;
48891;SDS011;50130;52.150;5.236;2023-02-28T07:34:58;23.4;;;21.0;;
48891;SDS011;50130;52.150;5.236;2023-02-28T07:36:35;15.8;;;12.8;;
48891;SDS011;50130;52.150;5.236;2023-02-28T07:39:47;17.7;;;15.4;;
48891;SDS011;50130;52.150;5.236;2023-02-28T07:41:23;13.5;;;12.1;;
48891;SDS011;50130;52.150;5.236;2023-02-28T07:42:59;15.3;;;11.9;;
48891;SDS011;50130;52.150;5.236;2023-02-28T07:46:14;16.11;;;11.2;;
48891;SDS011;50130;52.150;5.236;2023-02-28T07:47:51;13.2;;;11.8;;
48891;SDS011;50130;52.150;5.236;2023-02-28T07:49:29;16.7;;;13.3;;
48891;SDS011;50130;52.150;5.236;2023-02-28T07:51:05;15.6;;;12.7;;
48891;SDS011;50130;52.150;5.236;2023-02-28T07:54:18;16.3;;;14.2;;
48891;SDS011;50130;52.150;5.236;2023-02-28T07:55:54;21.5;;;19.2;;
48891;SDS011;50130;52.150;5.236;2023-02-28T07:57:31;22.2;;;19.8;;
48891;SDS011;50130;52.150;5.236;2023-02-28T08:00:43;22.6;;;18.91;;
48891;SDS011;50130;52.150;5.236;2023-02-28T08:02:20;18.61;;;14.8;;
48891;SDS011;50130;52.150;5.236;2023-02-28T08:03:56;15.1;;;12.8;;
48891;SDS011;50130;52.150;5.236;2023-02-28T08:07:08;13.3;;;11.0;;
48891;SDS011;50130;52.150;5.236;2023-02-28T08:08:44;15.5;;;12.1;;
48891;SDS011;50130;52.150;5.236;2023-02-28T08:10:20;14.9;;;12.1;;
48891;SDS011;50130;52.150;5.236;2023-02-28T08:11:57;13.4;;;11.3;;
48891;SDS011;50130;52.150;5.236;2023-02-28T08:15:09;14.0;;;11.4;;
48891;SDS011;50130;52.150;5.236;2023-02-28T08:16:46;14.7;;;12.1;;
48891;SDS011;50130;52.150;5.236;2023-02-28T08:18:23;15.2;;;11.2;;
48891;SDS011;50130;52.150;5.236;2023-02-28T08:21:36;14.1;;;12.0;;
48891;SDS011;50130;52.150;5.236;2023-02-28T08:23:12;14.2;;;11.6;;
48891;SDS011;50130;52.150;5.236;2023-02-28T08:24:49;15.4;;;11.4;;
48891;SDS011;50130;52.150;5.236;2023-02-28T08:28:01;14.4;;;12.9;;
48891;SDS011;50130;52.150;5.236;2023-02-28T08:29:37;12.9;;;10.8;;
48891;SDS011;50130;52.150;5.236;2023-02-28T08:31:15;14.3;;;12.8;;
48891;SDS011;50130;52.150;5.236;2023-02-28T08:32:53;15.7;;;12.2;;
48891;SDS011;50130;52.150;5.236;2023-02-28T08:36:05;15.1;;;11.9;;
48891;SDS011;50130;52.150;5.236;2023-02-28T08:37:43;14.5;;;12.3;;
48891;SDS011;50130;52.150;5.236;2023-02-28T08:39:19;14.9;;;12.5;;
48891;SDS011;50130;52.150;5.236;2023-02-28T08:42:34;15.8;;;11.4;;
48891;SDS011;50130;52.150;5.236;2023-02-28T08:44:11;14.1;;;11.9;;
48891;SDS011;50130;52.150;5.236;2023-02-28T08:45:50;17.3;;;12.7;;
48891;SDS011;50130;52.150;5.236;2023-02-28T08:49:03;14.2;;;12.0;;
48891;SDS011;50130;52.150;5.236;2023-02-28T08:50:39;15.3;;;12.2;;
48891;SDS011;50130;52.150;5.236;2023-02-28T08:52:15;13.7;;;11.4;;
48891;SDS011;50130;52.150;5.236;2023-02-28T08:53:53;12.8;;;11.4;;
48891;SDS011;50130;52.150;5.236;2023-02-28T08:57:06;14.1;;;11.4;;
48891;SDS011;50130;52.150;5.236;2023-02-28T08:58:42;12.2;;;10.9;;
48891;SDS011;50130;52.150;5.236;2023-02-28T09:00:21;12.2;;;10.5;;
48891;SDS011;50130;52.150;5.236;2023-02-28T09:03:33;12.7;;;9.5;;
48891;SDS011;50130;52.150;5.236;2023-02-28T09:05:10;10.7;;;9.6;;
48891;SDS011;50130;52.150;5.236;2023-02-28T09:06:46;11.5;;;9.31;;
48891;SDS011;50130;52.150;5.236;2023-02-28T09:09:59;11.9;;;8.4;;
48891;SDS011;50130;52.150;5.236;2023-02-28T09:11:35;11.9;;;8.4;;
48891;SDS011;50130;52.150;5.236;2023-02-28T09:13:12;9.31;;;7.7;;
48891;SDS011;50130;52.150;5.236;2023-02-28T09:14:48;9.0;;;8.0;;
48891;SDS011;50130;52.150;5.236;2023-02-28T09:18:01;10.4;;;7.6;;
48891;SDS011;50130;52.150;5.236;2023-02-28T09:19:37;8.71;;;6.8;;
48891;SDS011;50130;52.150;5.236;2023-02-28T09:21:13;9.71;;;7.7;;
48891;SDS011;50130;52.150;5.236;2023-02-28T09:24:28;9.0;;;5.3;;
48891;SDS011;50130;52.150;5.236;2023-02-28T09:26:04;7.3;;;5.6;;
48891;SDS011;50130;52.150;5.236;2023-02-28T09:27:41;8.4;;;5.9;;
48891;SDS011;50130;52.150;5.236;2023-02-28T09:30:54;10.0;;;7.0;;
48891;SDS011;50130;52.150;5.236;2023-02-28T09:32:31;7.9;;;5.8;;
48891;SDS011;50130;52.150;5.236;2023-02-28T09:34:07;9.71;;;5.4;;
48891;SDS011;50130;52.150;5.236;2023-02-28T09:35:43;6.7;;;4.8;;
48891;SDS011;50130;52.150;5.236;2023-02-28T09:38:55;7.3;;;4.7;;
48891;SDS011;50130;52.150;5.236;2023-02-28T09:40:32;6.7;;;4.7;;
48891;SDS011;50130;52.150;5.236;2023-02-28T09:42:17;4.2;;;3.4;;
48891;SDS011;50130;52.150;5.236;2023-02-28T09:44:05;5.7;;;3.9;;
48891;SDS011;50130;52.150;5.236;2023-02-28T09:47:31;5.2;;;3.6;;
48891;SDS011;50130;52.150;5.236;2023-02-28T09:49:12;5.8;;;3.3;;
48891;SDS011;50130;52.150;5.236;2023-02-28T09:50:52;5.6;;;3.9;;
48891;SDS011;50130;52.150;5.236;2023-02-28T09:52:37;6.9;;;3.0;;
48891;SDS011;50130;52.150;5.236;2023-02-28T09:55:53;4.1;;;3.0;;
48891;SDS011;50130;52.150;5.236;2023-02-28T09:57:35;5.2;;;3.1;;
48891;SDS011;50130;52.150;5.236;2023-02-28T09:59:18;5.5;;;3.2;;
48891;SDS011;50130;52.150;5.236;2023-02-28T10:01:18;5.0;;;3.4;;
48891;SDS011;50130;52.150;5.236;2023-02-28T10:03:13;4.2;;;3.1;;
48891;SDS011;50130;52.150;5.236;2023-02-28T10:05:02;5.9;;;3.1;;
48891;SDS011;50130;52.150;5.236;2023-02-28T10:08:25;5.9;;;3.1;;
48891;SDS011;50130;52.150;5.236;2023-02-28T10:10:07;6.4;;;3.4;;
48891;SDS011;50130;52.150;5.236;2023-02-28T10:11:57;4.8;;;2.9;;
48891;SDS011;50130;52.150;5.236;2023-02-28T10:13:42;5.2;;;3.0;;
48891;SDS011;50130;52.150;5.236;2023-02-28T10:15:27;4.1;;;2.4;;
48891;SDS011;50130;52.150;5.236;2023-02-28T10:18:50;3.4;;;1.9;;
48891;SDS011;50130;52.150;5.236;2023-02-28T10:20:35;3.3;;;2.0;;
48891;SDS011;50130;52.150;5.236;2023-02-28T10:22:14;4.41;;;2.0;;
48891;SDS011;50130;52.150;5.236;2023-02-28T10:23:59;3.9;;;2.1;;
48891;SDS011;50130;52.150;5.236;2023-02-28T10:25:54;5.0;;;2.21;;
48891;SDS011;50130;52.150;5.236;2023-02-28T10:29:10;2.5;;;2.0;;
48891;SDS011;50130;52.150;5.236;2023-02-28T10:30:47;3.0;;;2.1;;
48891;SDS011;50130;52.150;5.236;2023-02-28T10:32:26;3.1;;;1.9;;
48891;SDS011;50130;52.150;5.236;2023-02-28T10:35:47;3.7;;;2.0;;
48891;SDS011;50130;52.150;5.236;2023-02-28T10:37:25;4.0;;;2.0;;
48891;SDS011;50130;52.150;5.236;2023-02-28T10:39:01;2.8;;;1.7;;
48891;SDS011;50130;52.150;5.236;2023-02-28T10:41:11;3.6;;;2.0;;
48891;SDS011;50130;52.150;5.236;2023-02-28T10:42:54;3.5;;;1.8;;
48891;SDS011;50130;52.150;5.236;2023-02-28T10:46:11;2.9;;;1.7;;
48891;SDS011;50130;52.150;5.236;2023-02-28T10:47:52;2.31;;;1.7;;
48891;SDS011;50130;52.150;5.236;2023-02-28T10:49:30;2.4;;;1.8;;
48891;SDS011;50130;52.150;5.236;2023-02-28T10:51:07;2.9;;;1.9;;
48891;SDS011;50130;52.150;5.236;2023-02-28T10:54:22;2.31;;;1.7;;
48891;SDS011;50130;52.150;5.236;2023-02-28T10:56:03;2.21;;;1.6;;
48891;SDS011;50130;52.150;5.236;2023-02-28T10:57:49;3.3;;;1.7;;
48891;SDS011;50130;52.150;5.236;2023-02-28T10:59:27;2.5;;;1.6;;
48891;SDS011;50130;52.150;5.236;2023-02-28T11:02:49;2.31;;;1.4;;
48891;SDS011;50130;52.150;5.236;2023-02-28T11:04:34;3.1;;;1.8;;
48891;SDS011;50130;52.150;5.236;2023-02-28T11:06:14;2.5;;;1.8;;
48891;SDS011;50130;52.150;5.236;2023-02-28T11:07:54;3.8;;;1.8;;
48891;SDS011;50130;52.150;5.236;2023-02-28T11:11:14;3.3;;;1.6;;
48891;SDS011;50130;52.150;5.236;2023-02-28T11:12:53;3.3;;;1.8;;
48891;SDS011;50130;52.150;5.236;2023-02-28T11:14:31;2.31;;;1.6;;
48891;SDS011;50130;52.150;5.236;2023-02-28T11:16:30;3.6;;;1.7;;
48891;SDS011;50130;52.150;5.236;2023-02-28T11:18:18;1.9;;;1.6;;
48891;SDS011;50130;52.150;5.236;2023-02-28T11:21:39;3.2;;;1.9;;
48891;SDS011;50130;52.150;5.236;2023-02-28T11:23:24;2.5;;;1.7;;
48891;SDS011;50130;52.150;5.236;2023-02-28T11:25:06;4.41;;;1.8;;
48891;SDS011;50130;52.150;5.236;2023-02-28T11:26:46;3.7;;;1.7;;
48891;SDS011;50130;52.150;5.236;2023-02-28T11:30:12;1.8;;;1.5;;
48891;SDS011;50130;52.150;5.236;2023-02-28T11:32:01;2.4;;;1.4;;
48891;SDS011;50130;52.150;5.236;2023-02-28T11:33:49;1.8;;;1.4;;
48891;SDS011;50130;52.150;5.236;2023-02-28T11:35:28;3.8;;;1.6;;
48891;SDS011;50130;52.150;5.236;2023-02-28T11:37:11;3.4;;;1.6;;
48891;SDS011;50130;52.150;5.236;2023-02-28T11:40:37;2.6;;;1.6;;
48891;SDS011;50130;52.150;5.236;2023-02-28T11:42:25;2.6;;;1.6;;
48891;SDS011;50130;52.150;5.236;2023-02-28T11:45:17;2.31;;;1.4;;
48891;SDS011;50130;52.150;5.236;2023-02-28T11:47:15;2.5;;;1.8;;
48891;SDS011;50130;52.150;5.236;2023-02-28T11:49:02;2.4;;;1.7;;
48891;SDS011;50130;52.150;5.236;2023-02-28T11:50:55;2.6;;;1.6;;
48891;SDS011;50130;52.150;5.236;2023-02-28T11:52:43;4.3;;;1.7;;
48891;SDS011;50130;52.150;5.236;2023-02-28T11:54:27;3.0;;;1.8;;
48891;SDS011;50130;52.150;5.236;2023-02-28T11:56:29;2.31;;;1.9;;
48891;SDS011;50130;52.150;5.236;2023-02-28T11:58:14;2.21;;;1.5;;
48891;SDS011;50130;52.150;5.236;2023-02-28T12:00:30;2.6;;;2.0;;
48891;SDS011;50130;52.150;5.236;2023-02-28T12:02:22;2.31;;;1.6;;
48891;SDS011;50130;52.150;5.236;2023-02-28T12:05:58;2.31;;;1.7;;
48891;SDS011;50130;52.150;5.236;2023-02-28T12:07:56;2.6;;;1.6;;
48891;SDS011;50130;52.150;5.236;2023-02-28T12:09:46;3.6;;;1.8;;
48891;SDS011;50130;52.150;5.236;2023-02-28T12:11:39;2.5;;;1.6;;
48891;SDS011;50130;52.150;5.236;2023-02-28T12:13:28;2.21;;;1.6;;
48891;SDS011;50130;52.150;5.236;2023-02-28T12:15:16;2.1;;;1.6;;
48891;SDS011;50130;52.150;5.236;2023-02-28T12:18:25;2.31;;;1.8;;
48891;SDS011;50130;52.150;5.236;2023-02-28T12:20:28;2.9;;;1.7;;
48891;SDS011;50130;52.150;5.236;2023-02-28T12:22:15;2.4;;;1.7;;
48891;SDS011;50130;52.150;5.236;2023-02-28T12:24:08;2.7;;;1.5;;
48891;SDS011;50130;52.150;5.236;2023-02-28T12:26:27;2.8;;;1.5;;
48891;SDS011;50130;52.150;5.236;2023-02-28T12:28:13;2.5;;;1.7;;
48891;SDS011;50130;52.150;5.236;2023-02-28T12:29:54;2.9;;;1.7;;
48891;SDS011;50130;52.150;5.236;2023-02-28T12:31:35;2.31;;;1.5;;
48891;SDS011;50130;52.150;5.236;2023-02-28T12:34:57;2.1;;;1.6;;
48891;SDS011;50130;52.150;5.236;2023-02-28T12:36:40;3.2;;;1.6;;
48891;SDS011;50130;52.150;5.236;2023-02-28T12:38:19;2.9;;;1.6;;
48891;SDS011;50130;52.150;5.236;2023-02-28T12:40:01;2.21;;;1.5;;
48891;SDS011;50130;52.150;5.236;2023-02-28T12:43:22;2.7;;;1.7;;
48891;SDS011;50130;52.150;5.236;2023-02-28T12:45:09;2.8;;;1.7;;
48891;SDS011;50130;52.150;5.236;2023-02-28T12:46:51;3.2;;;1.8;;
48891;SDS011;50130;52.150;5.236;2023-02-28T12:48:39;3.7;;;1.6;;
48891;SDS011;50130;52.150;5.236;2023-02-28T12:50:18;2.6;;;1.8;;
48891;SDS011;50130;52.150;5.236;2023-02-28T12:53:36;3.4;;;1.6;;
48891;SDS011;50130;52.150;5.236;2023-02-28T12:55:27;2.31;;;1.6;;
48891;SDS011;50130;52.150;5.236;2023-02-28T12:57:15;2.6;;;1.7;;
48891;SDS011;50130;52.150;5.236;2023-02-28T12:59:01;2.31;;;1.5;;
48891;SDS011;50130;52.150;5.236;2023-02-28T13:00:48;3.0;;;1.5;;
48891;SDS011;50130;52.150;5.236;2023-02-28T13:03:41;2.21;;;1.2;;
48891;SDS011;50130;52.150;5.236;2023-02-28T13:05:32;2.0;;;1.4;;
48891;SDS011;50130;52.150;5.236;2023-02-28T13:08:23;3.1;;;1.5;;